sensor_id;sensor_type;location;lat;lon;timestamp;pressure;altitude;pressure_sealevel;temperature;humidity
10718;BME280;13513;42.700;23.124;2022-08-18T00:02:13;92838.39;;;20.42;80.62
10718;BME280;13513;42.700;23.124;2022-08-18T00:04:44;92839.07;;;20.36;80.92
10718;BME280;13513;42.700;23.124;2022-08-18T00:07:16;92840.41;;;20.36;80.81
10718;BME280;13513;42.700;23.124;2022-08-18T00:09:47;92837.14;;;20.28;81.53
10718;BME280;13513;42.700;23.124;2022-08-18T00:12:24;92836.77;;;20.21;82.85
10718;BME280;13513;42.700;23.124;2022-08-18T00:14:54;92840.93;;;20.16;82.97
10718;BME280;13513;42.700;23.124;2022-08-18T00:17:25;92841.14;;;20.06;83.38
10718;BME280;13513;42.700;23.124;2022-08-18T00:19:57;92834.39;;;20.09;83.60
10718;BME280;13513;42.700;23.124;2022-08-18T00:22:27;92839.27;;;20.07;84.21
10718;BME280;13513;42.700;23.124;2022-08-18T00:24:58;92837.62;;;20.08;83.93
10718;BME280;13513;42.700;23.124;2022-08-18T00:27:30;92842.17;;;20.08;84.09
10718;BME280;13513;42.700;23.124;2022-08-18T00:30:04;92842.01;;;20.04;84.93
10718;BME280;13513;42.700;23.124;2022-08-18T00:32:42;92838.35;;;20.00;83.97
10718;BME280;13513;42.700;23.124;2022-08-18T00:35:17;92837.62;;;19.97;85.15
10718;BME280;13513;42.700;23.124;2022-08-18T00:37:46;92843.58;;;19.94;85.61
10718;BME280;13513;42.700;23.124;2022-08-18T00:40:19;92839.49;;;19.97;84.96
10718;BME280;13513;42.700;23.124;2022-08-18T00:42:51;92845.96;;;19.96;85.10
10718;BME280;13513;42.700;23.124;2022-08-18T00:45:23;92847.06;;;19.95;84.66
10718;BME280;13513;42.700;23.124;2022-08-18T00:47:53;92848.23;;;19.91;85.46
10718;BME280;13513;42.700;23.124;2022-08-18T00:50:32;92851.32;;;19.85;86.71
10718;BME280;13513;42.700;23.124;2022-08-18T00:53:18;92850.48;;;19.87;85.98
10718;BME280;13513;42.700;23.124;2022-08-18T00:55:39;92847.19;;;19.79;86.46
10718;BME280;13513;42.700;23.124;2022-08-18T00:58:12;92850.34;;;19.81;86.39
10718;BME280;13513;42.700;23.124;2022-08-18T01:00:43;92844.68;;;19.82;86.56
10718;BME280;13513;42.700;23.124;2022-08-18T01:03:18;92844.20;;;19.80;86.99
10718;BME280;13513;42.700;23.124;2022-08-18T01:05:59;92842.23;;;19.94;86.32
10718;BME280;13513;42.700;23.124;2022-08-18T01:08:28;92842.98;;;19.97;86.44
10718;BME280;13513;42.700;23.124;2022-08-18T01:10:59;92841.64;;;19.97;86.16
10718;BME280;13513;42.700;23.124;2022-08-18T01:13:32;92839.77;;;19.98;85.66
10718;BME280;13513;42.700;23.124;2022-08-18T01:16:07;92837.81;;;19.90;87.00
10718;BME280;13513;42.700;23.124;2022-08-18T01:18:55;92838.95;;;19.86;86.74
10718;BME280;13513;42.700;23.124;2022-08-18T01:21:45;92839.99;;;19.99;85.78
10718;BME280;13513;42.700;23.124;2022-08-18T01:24:29;92841.64;;;19.97;86.39
10718;BME280;13513;42.700;23.124;2022-08-18T01:26:54;92842.55;;;19.93;86.50
10718;BME280;13513;42.700;23.124;2022-08-18T01:29:25;92837.25;;;19.90;86.11
10718;BME280;13513;42.700;23.124;2022-08-18T01:31:56;92844.68;;;19.82;86.61
10718;BME280;13513;42.700;23.124;2022-08-18T01:34:27;92838.78;;;19.83;86.50
10718;BME280;13513;42.700;23.124;2022-08-18T01:36:58;92844.20;;;19.80;87.25
10718;BME280;13513;42.700;23.124;2022-08-18T01:39:28;92848.02;;;19.77;87.25
10718;BME280;13513;42.700;23.124;2022-08-18T01:41:59;92851.69;;;19.81;87.60
10718;BME280;13513;42.700;23.124;2022-08-18T01:44:30;92848.91;;;19.86;86.74
10718;BME280;13513;42.700;23.124;2022-08-18T01:47:00;92843.58;;;19.83;86.64
10718;BME280;13513;42.700;23.124;2022-08-18T01:49:32;92847.56;;;19.86;86.51
10718;BME280;13513;42.700;23.124;2022-08-18T01:52:03;92846.33;;;19.92;86.31
10718;BME280;13513;42.700;23.124;2022-08-18T01:54:33;92843.28;;;19.96;86.35
10718;BME280;13513;42.700;23.124;2022-08-18T01:57:04;92840.42;;;19.92;86.53
10718;BME280;13513;42.700;23.124;2022-08-18T01:59:34;92842.31;;;20.03;86.32
10718;BME280;13513;42.700;23.124;2022-08-18T02:02:05;92842.84;;;20.02;86.26
10718;BME280;13513;42.700;23.124;2022-08-18T02:04:36;92842.74;;;20.07;85.59
10718;BME280;13513;42.700;23.124;2022-08-18T02:07:09;92848.08;;;20.21;83.53
10718;BME280;13513;42.700;23.124;2022-08-18T02:09:41;92846.97;;;20.11;85.39
10718;BME280;13513;42.700;23.124;2022-08-18T02:12:11;92841.36;;;20.21;83.67
10718;BME280;13513;42.700;23.124;2022-08-18T02:14:42;92845.48;;;20.27;82.90
10718;BME280;13513;42.700;23.124;2022-08-18T02:17:13;92849.78;;;20.17;85.10
10718;BME280;13513;42.700;23.124;2022-08-18T02:19:46;92852.47;;;20.17;84.44
10718;BME280;13513;42.700;23.124;2022-08-18T02:22:18;92842.44;;;20.09;84.37
10718;BME280;13513;42.700;23.124;2022-08-18T02:24:50;92844.39;;;20.06;85.67
10718;BME280;13513;42.700;23.124;2022-08-18T02:27:20;92840.53;;;19.98;85.01
10718;BME280;13513;42.700;23.124;2022-08-18T02:29:51;92840.30;;;20.08;84.52
10718;BME280;13513;42.700;23.124;2022-08-18T02:32:22;92840.59;;;20.07;84.40
10718;BME280;13513;42.700;23.124;2022-08-18T02:34:52;92840.03;;;20.10;83.54
10718;BME280;13513;42.700;23.124;2022-08-18T02:37:22;92842.04;;;20.15;84.11
10718;BME280;13513;42.700;23.124;2022-08-18T02:39:53;92842.70;;;20.10;84.61
10718;BME280;13513;42.700;23.124;2022-08-18T02:42:23;92838.42;;;20.09;84.10
10718;BME280;13513;42.700;23.124;2022-08-18T02:44:54;92844.48;;;20.14;82.94
10718;BME280;13513;42.700;23.124;2022-08-18T02:47:27;92849.48;;;20.18;82.93
10718;BME280;13513;42.700;23.124;2022-08-18T02:50:00;92844.89;;;20.19;83.38
10718;BME280;13513;42.700;23.124;2022-08-18T02:52:31;92845.93;;;20.20;84.03
10718;BME280;13513;42.700;23.124;2022-08-18T02:55:05;92844.79;;;20.13;83.87
10718;BME280;13513;42.700;23.124;2022-08-18T02:57:35;92844.63;;;20.07;85.20
10718;BME280;13513;42.700;23.124;2022-08-18T03:00:08;92843.89;;;20.04;85.00
10718;BME280;13513;42.700;23.124;2022-08-18T03:02:39;92840.23;;;20.00;84.27
10718;BME280;13513;42.700;23.124;2022-08-18T03:05:11;92842.91;;;19.89;85.58
10718;BME280;13513;42.700;23.124;2022-08-18T03:07:41;92840.42;;;19.92;85.76
10718;BME280;13513;42.700;23.124;2022-08-18T03:10:13;92849.58;;;19.91;85.82
10718;BME280;13513;42.700;23.124;2022-08-18T03:12:43;92844.91;;;19.83;85.21
10718;BME280;13513;42.700;23.124;2022-08-18T03:15:13;92847.66;;;19.81;85.96
10718;BME280;13513;42.700;23.124;2022-08-18T03:17:44;92842.30;;;19.81;85.03
10718;BME280;13513;42.700;23.124;2022-08-18T03:20:15;92847.64;;;19.69;86.26
10718;BME280;13513;42.700;23.124;2022-08-18T03:22:46;92844.94;;;19.72;86.39
10718;BME280;13513;42.700;23.124;2022-08-18T03:25:19;92855.02;;;19.53;87.83
10718;BME280;13513;42.700;23.124;2022-08-18T03:27:51;92851.00;;;19.53;88.20
10718;BME280;13513;42.700;23.124;2022-08-18T03:30:22;92853.05;;;19.56;88.41
10718;BME280;13513;42.700;23.124;2022-08-18T03:32:52;92852.45;;;19.59;87.24
10718;BME280;13513;42.700;23.124;2022-08-18T03:35:23;92854.36;;;19.58;86.78
10718;BME280;13513;42.700;23.124;2022-08-18T03:37:57;92855.34;;;19.63;87.63
10718;BME280;13513;42.700;23.124;2022-08-18T03:40:26;92856.71;;;19.60;87.02
10718;BME280;13513;42.700;23.124;2022-08-18T03:42:56;92857.81;;;19.59;86.77
10718;BME280;13513;42.700;23.124;2022-08-18T03:45:27;92853.02;;;19.58;86.80
10718;BME280;13513;42.700;23.124;2022-08-18T03:47:57;92856.68;;;19.63;86.31
10718;BME280;13513;42.700;23.124;2022-08-18T03:50:28;92854.19;;;19.77;85.57
10718;BME280;13513;42.700;23.124;2022-08-18T03:52:59;92856.00;;;19.79;85.98
10718;BME280;13513;42.700;23.124;2022-08-18T03:55:30;92856.67;;;19.73;86.77
10718;BME280;13513;42.700;23.124;2022-08-18T03:58:02;92863.04;;;19.78;86.87
10718;BME280;13513;42.700;23.124;2022-08-18T04:00:36;92861.45;;;19.88;85.16
10718;BME280;13513;42.700;23.124;2022-08-18T04:03:04;92864.44;;;19.97;83.61
10718;BME280;13513;42.700;23.124;2022-08-18T04:05:41;92866.59;;;20.09;83.23
10718;BME280;13513;42.700;23.124;2022-08-18T04:08:06;92868.44;;;20.22;82.35
10718;BME280;13513;42.700;23.124;2022-08-18T04:10:37;92867.83;;;20.25;81.99
10718;BME280;13513;42.700;23.124;2022-08-18T04:13:08;92877.89;;;20.30;83.48
10718;BME280;13513;42.700;23.124;2022-08-18T04:15:37;92879.77;;;20.41;82.38
10718;BME280;13513;42.700;23.124;2022-08-18T04:18:08;92876.88;;;20.48;82.83
10718;BME280;13513;42.700;23.124;2022-08-18T04:20:39;92872.73;;;20.53;82.35
10718;BME280;13513;42.700;23.124;2022-08-18T04:23:10;92879.06;;;20.68;82.18
10718;BME280;13513;42.700;23.124;2022-08-18T04:25:41;92886.76;;;20.81;81.44
10718;BME280;13513;42.700;23.124;2022-08-18T04:28:12;92883.81;;;20.91;79.98
10718;BME280;13513;42.700;23.124;2022-08-18T04:30:44;92882.13;;;20.95;81.12
10718;BME280;13513;42.700;23.124;2022-08-18T04:33:15;92892.85;;;21.14;80.33
10718;BME280;13513;42.700;23.124;2022-08-18T04:35:48;92894.11;;;21.28;79.12
10718;BME280;13513;42.700;23.124;2022-08-18T04:38:20;92892.77;;;21.36;80.36
10718;BME280;13513;42.700;23.124;2022-08-18T04:40:51;92891.09;;;21.66;78.35
10718;BME280;13513;42.700;23.124;2022-08-18T04:43:22;92895.44;;;21.92;76.10
10718;BME280;13513;42.700;23.124;2022-08-18T04:45:52;92900.41;;;22.13;75.34
10718;BME280;13513;42.700;23.124;2022-08-18T04:48:23;92901.42;;;22.40;75.01
10718;BME280;13513;42.700;23.124;2022-08-18T04:50:54;92888.88;;;22.70;73.42
10718;BME280;13513;42.700;23.124;2022-08-18T04:53:25;92901.32;;;23.00;70.79
10718;BME280;13513;42.700;23.124;2022-08-18T04:56:22;92892.42;;;23.31;70.39
10718;BME280;13513;42.700;23.124;2022-08-18T04:59:10;92894.84;;;23.68;67.60
10718;BME280;13513;42.700;23.124;2022-08-18T05:01:38;92894.34;;;24.09;66.33
10718;BME280;13513;42.700;23.124;2022-08-18T05:04:08;92895.30;;;24.46;63.50
10718;BME280;13513;42.700;23.124;2022-08-18T05:06:38;92897.93;;;24.75;61.18
10718;BME280;13513;42.700;23.124;2022-08-18T05:09:10;92902.48;;;24.95;59.59
10718;BME280;13513;42.700;23.124;2022-08-18T05:11:42;92904.05;;;25.34;57.90
10718;BME280;13513;42.700;23.124;2022-08-18T05:14:13;92907.34;;;25.70;57.03
10718;BME280;13513;42.700;23.124;2022-08-18T05:16:44;92912.27;;;25.92;56.13
10718;BME280;13513;42.700;23.124;2022-08-18T05:19:17;92911.58;;;26.19;53.70
10718;BME280;13513;42.700;23.124;2022-08-18T05:21:50;92908.58;;;26.42;52.44
10718;BME280;13513;42.700;23.124;2022-08-18T05:24:22;92915.73;;;26.74;51.88
10718;BME280;13513;42.700;23.124;2022-08-18T05:26:53;92916.92;;;26.83;51.38
10718;BME280;13513;42.700;23.124;2022-08-18T05:29:24;92918.41;;;27.02;50.78
10718;BME280;13513;42.700;23.124;2022-08-18T05:31:55;92910.45;;;27.36;50.04
10718;BME280;13513;42.700;23.124;2022-08-18T05:34:25;92913.13;;;27.58;49.10
10718;BME280;13513;42.700;23.124;2022-08-18T05:37:03;92915.22;;;27.64;48.30
10718;BME280;13513;42.700;23.124;2022-08-18T05:39:47;92915.05;;;28.13;47.30
10718;BME280;13513;42.700;23.124;2022-08-18T05:42:17;92912.13;;;28.47;46.82
10718;BME280;13513;42.700;23.124;2022-08-18T05:44:49;92914.71;;;28.59;46.12
10718;BME280;13513;42.700;23.124;2022-08-18T05:47:30;92915.87;;;28.77;46.32
10718;BME280;13513;42.700;23.124;2022-08-18T05:50:09;92906.71;;;29.04;45.30
10718;BME280;13513;42.700;23.124;2022-08-18T05:52:42;92911.13;;;29.44;45.53
10718;BME280;13513;42.700;23.124;2022-08-18T05:55:16;92912.31;;;29.88;43.25
10718;BME280;13513;42.700;23.124;2022-08-18T05:58:17;92907.11;;;30.15;42.49
10718;BME280;13513;42.700;23.124;2022-08-18T06:00:51;92913.89;;;30.54;42.18
10718;BME280;13513;42.700;23.124;2022-08-18T06:03:31;92911.67;;;30.93;40.56
10718;BME280;13513;42.700;23.124;2022-08-18T06:05:59;92911.11;;;31.10;40.32
10718;BME280;13513;42.700;23.124;2022-08-18T06:08:33;92912.97;;;31.35;39.98
10718;BME280;13513;42.700;23.124;2022-08-18T06:11:03;92920.89;;;31.47;38.44
10718;BME280;13513;42.700;23.124;2022-08-18T06:13:37;92917.59;;;31.48;38.42
10718;BME280;13513;42.700;23.124;2022-08-18T06:16:24;92918.92;;;31.28;39.39
10718;BME280;13513;42.700;23.124;2022-08-18T06:19:24;92915.31;;;31.20;39.57
10718;BME280;13513;42.700;23.124;2022-08-18T06:27:35;92917.09;;;31.99;38.31
10718;BME280;13513;42.700;23.124;2022-08-18T06:30:14;92917.24;;;32.43;37.56
10718;BME280;13513;42.700;23.124;2022-08-18T06:35:54;92919.89;;;32.63;37.27
10718;BME280;13513;42.700;23.124;2022-08-18T06:41:19;92924.62;;;33.00;36.74
10718;BME280;13513;42.700;23.124;2022-08-18T06:44:04;92921.66;;;32.99;35.26
10718;BME280;13513;42.700;23.124;2022-08-18T06:49:43;92928.16;;;33.67;35.09
10718;BME280;13513;42.700;23.124;2022-08-18T06:52:18;92917.64;;;34.07;35.00
10718;BME280;13513;42.700;23.124;2022-08-18T06:54:49;92922.94;;;34.17;34.39
10718;BME280;13513;42.700;23.124;2022-08-18T06:57:31;92924.28;;;34.31;34.58
10718;BME280;13513;42.700;23.124;2022-08-18T07:02:47;92920.77;;;34.30;32.81
10718;BME280;13513;42.700;23.124;2022-08-18T07:05:25;92918.60;;;34.54;33.62
10718;BME280;13513;42.700;23.124;2022-08-18T07:10:59;92920.08;;;34.97;32.07
10718;BME280;13513;42.700;23.124;2022-08-18T07:13:28;92910.26;;;35.03;33.42
10718;BME280;13513;42.700;23.124;2022-08-18T07:19:13;92906.84;;;35.93;31.22
10718;BME280;13513;42.700;23.124;2022-08-18T07:22:10;92904.23;;;36.27;30.35
10718;BME280;13513;42.700;23.124;2022-08-18T07:24:20;92902.05;;;36.52;31.07
10718;BME280;13513;42.700;23.124;2022-08-18T07:27:05;92909.84;;;37.16;29.39
10718;BME280;13513;42.700;23.124;2022-08-18T07:32:25;92908.23;;;38.09;29.49
10718;BME280;13513;42.700;23.124;2022-08-18T07:34:56;92902.84;;;38.71;27.83
10718;BME280;13513;42.700;23.124;2022-08-18T07:37:33;92910.17;;;38.81;25.93
10718;BME280;13513;42.700;23.124;2022-08-18T07:43:16;92906.34;;;38.52;26.01
10718;BME280;13513;42.700;23.124;2022-08-18T07:45:45;92905.56;;;38.63;25.59
10718;BME280;13513;42.700;23.124;2022-08-18T07:48:32;92903.66;;;38.22;25.83
10718;BME280;13513;42.700;23.124;2022-08-18T07:53:58;92907.94;;;38.26;26.75
10718;BME280;13513;42.700;23.124;2022-08-18T07:56:54;92908.35;;;37.72;26.25
10718;BME280;13513;42.700;23.124;2022-08-18T08:07:57;92912.61;;;38.03;27.02
10718;BME280;13513;42.700;23.124;2022-08-18T08:10:48;92908.61;;;38.57;27.01
10718;BME280;13513;42.700;23.124;2022-08-18T08:15:53;92902.77;;;38.86;25.64
10718;BME280;13513;42.700;23.124;2022-08-18T08:21:08;92907.11;;;38.29;27.69
10718;BME280;13513;42.700;23.124;2022-08-18T08:29:13;92908.56;;;40.81;22.61
10718;BME280;13513;42.700;23.124;2022-08-18T08:31:53;92905.27;;;41.51;22.34
10718;BME280;13513;42.700;23.124;2022-08-18T08:34:40;92913.26;;;42.15;20.64
10718;BME280;13513;42.700;23.124;2022-08-18T08:37:23;92909.73;;;42.56;19.81
10718;BME280;13513;42.700;23.124;2022-08-18T08:40:02;92913.41;;;42.53;20.44
10718;BME280;13513;42.700;23.124;2022-08-18T08:45:28;92920.67;;;43.92;19.01
10718;BME280;13513;42.700;23.124;2022-08-18T08:50:33;92912.91;;;43.87;19.69
10718;BME280;13513;42.700;23.124;2022-08-18T08:53:05;92910.42;;;43.84;19.25
10718;BME280;13513;42.700;23.124;2022-08-18T08:55:39;92906.47;;;44.64;18.69
10718;BME280;13513;42.700;23.124;2022-08-18T09:00:56;92903.75;;;45.86;18.08
10718;BME280;13513;42.700;23.124;2022-08-18T09:03:55;92910.89;;;46.70;17.33
10718;BME280;13513;42.700;23.124;2022-08-18T09:06:39;92915.35;;;46.07;17.94
10718;BME280;13513;42.700;23.124;2022-08-18T09:09:16;92895.88;;;44.55;17.79
10718;BME280;13513;42.700;23.124;2022-08-18T09:20:47;92896.34;;;49.37;13.66
10718;BME280;13513;42.700;23.124;2022-08-18T09:23:27;92888.59;;;50.13;13.46
10718;BME280;13513;42.700;23.124;2022-08-18T09:25:58;92891.07;;;50.98;13.21
10718;BME280;13513;42.700;23.124;2022-08-18T09:33:52;92880.91;;;50.54;13.21
10718;BME280;13513;42.700;23.124;2022-08-18T09:36:43;92878.05;;;51.06;13.15
10718;BME280;13513;42.700;23.124;2022-08-18T09:39:24;92873.36;;;49.08;13.08
10718;BME280;13513;42.700;23.124;2022-08-18T09:42:25;92872.80;;;46.08;15.62
10718;BME280;13513;42.700;23.124;2022-08-18T09:47:55;92859.36;;;41.87;18.42
10718;BME280;13513;42.700;23.124;2022-08-18T09:49:56;92859.27;;;41.01;19.18
10718;BME280;13513;42.700;23.124;2022-08-18T10:00:39;92842.87;;;38.25;22.80
10718;BME280;13513;42.700;23.124;2022-08-18T10:03:16;92834.67;;;37.84;22.13
10718;BME280;13513;42.700;23.124;2022-08-18T10:05:55;92827.58;;;37.11;23.48
10718;BME280;13513;42.700;23.124;2022-08-18T10:08:35;92824.13;;;36.55;26.74
10718;BME280;13513;42.700;23.124;2022-08-18T10:11:20;92837.89;;;36.55;25.92
10718;BME280;13513;42.700;23.124;2022-08-18T10:14:03;92825.41;;;36.43;27.08
10718;BME280;13513;42.700;23.124;2022-08-18T10:17:00;92830.36;;;36.40;25.23
10718;BME280;13513;42.700;23.124;2022-08-18T10:20:19;92826.52;;;36.31;26.41
10718;BME280;13513;42.700;23.124;2022-08-18T10:22:08;92823.85;;;36.20;28.15
10718;BME280;13513;42.700;23.124;2022-08-18T10:24:45;92819.86;;;36.28;25.90
10718;BME280;13513;42.700;23.124;2022-08-18T10:30:05;92828.78;;;36.17;25.84
10718;BME280;13513;42.700;23.124;2022-08-18T10:32:42;92821.60;;;35.86;24.47
10718;BME280;13513;42.700;23.124;2022-08-18T10:38:17;92813.30;;;35.03;25.40
10718;BME280;13513;42.700;23.124;2022-08-18T10:40:55;92816.32;;;34.90;26.14
10718;BME280;13513;42.700;23.124;2022-08-18T10:43:29;92802.82;;;34.73;26.49
10718;BME280;13513;42.700;23.124;2022-08-18T10:45:58;92808.28;;;34.77;29.69
10718;BME280;13513;42.700;23.124;2022-08-18T10:48:31;92812.35;;;34.94;30.02
10718;BME280;13513;42.700;23.124;2022-08-18T10:51:17;92810.03;;;34.93;26.09
10718;BME280;13513;42.700;23.124;2022-08-18T10:56:49;92815.09;;;34.94;27.47
10718;BME280;13513;42.700;23.124;2022-08-18T10:59:35;92799.89;;;34.72;25.69
10718;BME280;13513;42.700;23.124;2022-08-18T11:04:58;92789.12;;;34.70;28.04
10718;BME280;13513;42.700;23.124;2022-08-18T11:07:31;92800.63;;;34.87;28.54
10718;BME280;13513;42.700;23.124;2022-08-18T11:10:16;92796.33;;;34.82;28.35
10718;BME280;13513;42.700;23.124;2022-08-18T11:15:46;92793.37;;;34.85;29.54
10718;BME280;13513;42.700;23.124;2022-08-18T11:18:35;92792.94;;;34.97;26.42
10718;BME280;13513;42.700;23.124;2022-08-18T11:24:26;92803.08;;;34.60;27.21
10718;BME280;13513;42.700;23.124;2022-08-18T11:27:04;92800.08;;;34.73;26.88
10718;BME280;13513;42.700;23.124;2022-08-18T11:29:36;92798.28;;;34.85;27.05
10718;BME280;13513;42.700;23.124;2022-08-18T11:34:51;92792.66;;;35.10;28.07
10718;BME280;13513;42.700;23.124;2022-08-18T11:43:45;92775.15;;;34.76;27.54
10718;BME280;13513;42.700;23.124;2022-08-18T11:46:00;92783.81;;;34.71;26.43
10718;BME280;13513;42.700;23.124;2022-08-18T11:48:36;92785.34;;;34.25;27.15
10718;BME280;13513;42.700;23.124;2022-08-18T11:53:55;92724.70;;;34.42;26.69
10718;BME280;13513;42.700;23.124;2022-08-18T11:56:27;92773.45;;;35.03;28.37
10718;BME280;13513;42.700;23.124;2022-08-18T11:59:04;92772.00;;;35.17;26.25
10718;BME280;13513;42.700;23.124;2022-08-18T12:04:26;92765.14;;;34.20;26.35
10718;BME280;13513;42.700;23.124;2022-08-18T12:07:05;92758.27;;;34.27;28.30
10718;BME280;13513;42.700;23.124;2022-08-18T12:10:07;92755.59;;;34.63;28.68
10718;BME280;13513;42.700;23.124;2022-08-18T12:12:42;92756.25;;;34.95;27.17
10718;BME280;13513;42.700;23.124;2022-08-18T12:17:45;92757.45;;;35.49;26.64
10718;BME280;13513;42.700;23.124;2022-08-18T12:20:17;92749.26;;;35.42;25.94
10718;BME280;13513;42.700;23.124;2022-08-18T12:22:49;92757.36;;;35.05;27.11
10718;BME280;13513;42.700;23.124;2022-08-18T12:25:21;92751.58;;;35.18;26.69
10718;BME280;13513;42.700;23.124;2022-08-18T12:27:52;92754.00;;;35.09;25.27
10718;BME280;13513;42.700;23.124;2022-08-18T12:30:23;92752.45;;;35.04;25.15
10718;BME280;13513;42.700;23.124;2022-08-18T12:32:54;92735.17;;;35.04;24.64
10718;BME280;13513;42.700;23.124;2022-08-18T12:35:25;92737.48;;;35.12;26.98
10718;BME280;13513;42.700;23.124;2022-08-18T12:37:57;92745.91;;;35.13;27.33
10718;BME280;13513;42.700;23.124;2022-08-18T12:40:29;92743.65;;;35.27;27.52
10718;BME280;13513;42.700;23.124;2022-08-18T12:43:00;92745.50;;;35.15;27.42
10718;BME280;13513;42.700;23.124;2022-08-18T12:45:31;92755.88;;;34.90;24.67
10718;BME280;13513;42.700;23.124;2022-08-18T12:48:02;92746.23;;;34.93;27.05
10718;BME280;13513;42.700;23.124;2022-08-18T12:50:36;92751.91;;;34.94;25.60
10718;BME280;13513;42.700;23.124;2022-08-18T12:53:08;92734.77;;;35.09;26.40
10718;BME280;13513;42.700;23.124;2022-08-18T12:55:41;92736.02;;;35.26;26.97
10718;BME280;13513;42.700;23.124;2022-08-18T12:58:10;92734.61;;;35.55;25.98
10718;BME280;13513;42.700;23.124;2022-08-18T13:00:40;92736.03;;;35.74;26.10
10718;BME280;13513;42.700;23.124;2022-08-18T13:03:12;92740.42;;;35.90;24.81
10718;BME280;13513;42.700;23.124;2022-08-18T13:05:43;92731.09;;;35.99;26.24
10718;BME280;13513;42.700;23.124;2022-08-18T13:08:17;92735.25;;;36.14;24.96
10718;BME280;13513;42.700;23.124;2022-08-18T13:10:47;92739.56;;;36.15;25.59
10718;BME280;13513;42.700;23.124;2022-08-18T13:13:20;92733.53;;;36.30;24.89
10718;BME280;13513;42.700;23.124;2022-08-18T13:15:50;92728.95;;;36.13;24.95
10718;BME280;13513;42.700;23.124;2022-08-18T13:18:21;92722.83;;;35.99;24.61
10718;BME280;13513;42.700;23.124;2022-08-18T13:20:52;92722.27;;;35.96;25.90
10718;BME280;13513;42.700;23.124;2022-08-18T13:23:23;92724.38;;;36.00;24.28
10718;BME280;13513;42.700;23.124;2022-08-18T13:25:55;92720.47;;;36.01;26.32
10718;BME280;13513;42.700;23.124;2022-08-18T13:28:28;92721.97;;;36.05;25.84
10718;BME280;13513;42.700;23.124;2022-08-18T13:31:01;92723.50;;;36.10;24.66
10718;BME280;13513;42.700;23.124;2022-08-18T13:33:31;92723.33;;;36.09;25.34
10718;BME280;13513;42.700;23.124;2022-08-18T13:36:03;92720.63;;;36.20;25.10
10718;BME280;13513;42.700;23.124;2022-08-18T13:38:33;92714.69;;;36.25;24.53
10718;BME280;13513;42.700;23.124;2022-08-18T13:41:04;92713.31;;;35.88;25.45
10718;BME280;13513;42.700;23.124;2022-08-18T13:43:37;92712.45;;;35.73;27.26
10718;BME280;13513;42.700;23.124;2022-08-18T13:46:12;92717.96;;;35.76;26.01
10718;BME280;13513;42.700;23.124;2022-08-18T13:48:43;92718.08;;;35.84;26.43
10718;BME280;13513;42.700;23.124;2022-08-18T13:51:20;92715.66;;;35.90;26.36
10718;BME280;13513;42.700;23.124;2022-08-18T13:53:45;92703.20;;;35.75;24.88
10718;BME280;13513;42.700;23.124;2022-08-18T13:56:16;92703.90;;;35.64;25.00
10718;BME280;13513;42.700;23.124;2022-08-18T13:58:47;92696.23;;;35.63;25.93
10718;BME280;13513;42.700;23.124;2022-08-18T14:01:18;92695.58;;;35.52;26.99
10718;BME280;13513;42.700;23.124;2022-08-18T14:03:49;92688.58;;;34.90;27.15
10718;BME280;13513;42.700;23.124;2022-08-18T14:06:20;92693.42;;;35.01;26.96
10718;BME280;13513;42.700;23.124;2022-08-18T14:08:52;92700.28;;;35.01;27.34
10718;BME280;13513;42.700;23.124;2022-08-18T14:11:29;92696.39;;;35.20;27.21
10718;BME280;13513;42.700;23.124;2022-08-18T14:13:55;92701.41;;;35.36;27.08
10718;BME280;13513;42.700;23.124;2022-08-18T14:16:27;92697.77;;;35.46;27.51
10718;BME280;13513;42.700;23.124;2022-08-18T14:18:59;92700.23;;;35.59;26.59
10718;BME280;13513;42.700;23.124;2022-08-18T14:21:48;92695.42;;;35.66;26.57
10718;BME280;13513;42.700;23.124;2022-08-18T14:24:36;92695.76;;;35.28;26.30
10718;BME280;13513;42.700;23.124;2022-08-18T14:27:29;92691.05;;;35.32;27.92
10718;BME280;13513;42.700;23.124;2022-08-18T14:30:09;92680.75;;;35.39;27.74
10718;BME280;13513;42.700;23.124;2022-08-18T14:32:40;92677.78;;;35.42;28.12
10718;BME280;13513;42.700;23.124;2022-08-18T14:35:13;92685.61;;;35.47;27.14
10718;BME280;13513;42.700;23.124;2022-08-18T14:37:45;92682.11;;;35.43;27.08
10718;BME280;13513;42.700;23.124;2022-08-18T14:40:17;92682.66;;;35.46;27.19
10718;BME280;13513;42.700;23.124;2022-08-18T14:42:47;92683.14;;;35.37;27.81
10718;BME280;13513;42.700;23.124;2022-08-18T14:45:18;92681.59;;;35.07;27.56
10718;BME280;13513;42.700;23.124;2022-08-18T14:47:48;92680.08;;;34.99;28.48
10718;BME280;13513;42.700;23.124;2022-08-18T14:50:19;92681.90;;;34.91;28.83
10718;BME280;13513;42.700;23.124;2022-08-18T14:52:50;92690.72;;;34.90;27.78
10718;BME280;13513;42.700;23.124;2022-08-18T14:55:21;92692.14;;;34.80;27.94
10718;BME280;13513;42.700;23.124;2022-08-18T14:57:52;92697.31;;;34.71;28.27
10718;BME280;13513;42.700;23.124;2022-08-18T15:00:23;92692.28;;;34.59;29.13
10718;BME280;13513;42.700;23.124;2022-08-18T15:02:54;92699.94;;;34.56;28.76
10718;BME280;13513;42.700;23.124;2022-08-18T15:05:24;92699.21;;;34.48;27.92
10718;BME280;13513;42.700;23.124;2022-08-18T15:07:55;92696.31;;;34.37;28.32
10718;BME280;13513;42.700;23.124;2022-08-18T15:10:27;92706.52;;;34.26;28.65
10718;BME280;13513;42.700;23.124;2022-08-18T15:12:57;92705.80;;;34.11;29.13
10718;BME280;13513;42.700;23.124;2022-08-18T15:15:28;92695.84;;;34.02;29.27
10718;BME280;13513;42.700;23.124;2022-08-18T15:17:58;92705.25;;;33.98;28.47
10718;BME280;13513;42.700;23.124;2022-08-18T15:20:29;92704.29;;;33.89;28.14
10718;BME280;13513;42.700;23.124;2022-08-18T15:23:03;92705.09;;;33.79;28.59
10718;BME280;13513;42.700;23.124;2022-08-18T15:25:50;92711.38;;;33.62;29.86